sensor_id;sensor_type;location;lat;lon;timestamp;P1;durP1;ratioP1;P2;durP2;ratioP2
50988;SDS011;37008;52.210;21.112;2023-07-13T00:02:22;14.40;;;12.63;;
50988;SDS011;37008;52.210;21.112;2023-07-13T00:04:48;16.13;;;13.00;;
50988;SDS011;37008;52.210;21.112;2023-07-13T00:07:15;15.77;;;14.07;;
50988;SDS011;37008;52.210;21.112;2023-07-13T00:09:40;19.75;;;14.20;;
50988;SDS011;37008;52.210;21.112;2023-07-13T00:12:21;17.27;;;13.05;;
50988;SDS011;37008;52.210;21.112;2023-07-13T00:14:58;14.57;;;13.05;;
50988;SDS011;37008;52.210;21.112;2023-07-13T00:17:25;14.38;;;12.88;;
50988;SDS011;37008;52.210;21.112;2023-07-13T00:19:52;14.55;;;11.98;;
50988;SDS011;37008;52.210;21.112;2023-07-13T00:22:18;14.80;;;13.30;;
50988;SDS011;37008;52.210;21.112;2023-07-13T00:24:44;14.45;;;12.95;;
50988;SDS011;37008;52.210;21.112;2023-07-13T00:27:10;18.10;;;13.68;;
50988;SDS011;37008;52.210;21.112;2023-07-13T00:29:38;14.65;;;12.57;;
50988;SDS011;37008;52.210;21.112;2023-07-13T00:32:04;16.63;;;13.18;;
50988;SDS011;37008;52.210;21.112;2023-07-13T00:34:31;15.13;;;13.57;;
50988;SDS011;37008;52.210;21.112;2023-07-13T00:36:57;14.93;;;13.32;;
50988;SDS011;37008;52.210;21.112;2023-07-13T00:39:23;13.27;;;11.88;;
50988;SDS011;37008;52.210;21.112;2023-07-13T00:41:49;15.93;;;12.35;;
50988;SDS011;37008;52.210;21.112;2023-07-13T00:44:16;15.40;;;13.90;;
50988;SDS011;37008;52.210;21.112;2023-07-13T00:46:43;20.08;;;13.18;;
50988;SDS011;37008;52.210;21.112;2023-07-13T00:49:11;14.02;;;12.52;;
50988;SDS011;37008;52.210;21.112;2023-07-13T00:51:44;16.45;;;14.15;;
50988;SDS011;37008;52.210;21.112;2023-07-13T00:54:14;15.30;;;12.73;;
50988;SDS011;37008;52.210;21.112;2023-07-13T00:56:43;15.98;;;13.15;;
50988;SDS011;37008;52.210;21.112;2023-07-13T00:59:10;18.48;;;12.73;;
50988;SDS011;37008;52.210;21.112;2023-07-13T01:01:38;15.13;;;12.73;;
50988;SDS011;37008;52.210;21.112;2023-07-13T01:04:04;17.42;;;12.80;;
50988;SDS011;37008;52.210;21.112;2023-07-13T01:06:32;14.52;;;12.05;;
50988;SDS011;37008;52.210;21.112;2023-07-13T01:09:00;20.02;;;15.07;;
50988;SDS011;37008;52.210;21.112;2023-07-13T01:11:26;16.27;;;13.57;;
50988;SDS011;37008;52.210;21.112;2023-07-13T01:13:52;18.13;;;12.82;;
50988;SDS011;37008;52.210;21.112;2023-07-13T01:16:25;14.50;;;13.00;;
50988;SDS011;37008;52.210;21.112;2023-07-13T01:18:53;17.48;;;13.65;;
50988;SDS011;37008;52.210;21.112;2023-07-13T01:21:23;17.33;;;13.20;;
50988;SDS011;37008;52.210;21.112;2023-07-13T01:23:49;16.13;;;12.93;;
50988;SDS011;37008;52.210;21.112;2023-07-13T01:26:14;15.38;;;13.63;;
50988;SDS011;37008;52.210;21.112;2023-07-13T01:28:40;16.63;;;13.50;;
50988;SDS011;37008;52.210;21.112;2023-07-13T01:31:06;16.83;;;13.50;;
50988;SDS011;37008;52.210;21.112;2023-07-13T01:33:33;16.63;;;13.52;;
50988;SDS011;37008;52.210;21.112;2023-07-13T01:36:00;13.82;;;12.43;;
50988;SDS011;37008;52.210;21.112;2023-07-13T01:38:27;14.30;;;12.93;;
50988;SDS011;37008;52.210;21.112;2023-07-13T01:40:53;16.15;;;12.27;;
50988;SDS011;37008;52.210;21.112;2023-07-13T01:43:19;16.42;;;13.30;;
50988;SDS011;37008;52.210;21.112;2023-07-13T01:45:45;18.40;;;14.52;;
50988;SDS011;37008;52.210;21.112;2023-07-13T01:48:10;16.88;;;13.82;;
50988;SDS011;37008;52.210;21.112;2023-07-13T01:50:36;16.70;;;14.25;;
50988;SDS011;37008;52.210;21.112;2023-07-13T01:53:02;17.40;;;12.75;;
50988;SDS011;37008;52.210;21.112;2023-07-13T01:55:28;13.18;;;11.70;;
50988;SDS011;37008;52.210;21.112;2023-07-13T01:57:55;19.90;;;12.60;;
50988;SDS011;37008;52.210;21.112;2023-07-13T02:00:20;15.02;;;13.18;;
50988;SDS011;37008;52.210;21.112;2023-07-13T02:02:46;16.45;;;12.52;;
50988;SDS011;37008;52.210;21.112;2023-07-13T02:05:12;16.42;;;13.55;;
50988;SDS011;37008;52.210;21.112;2023-07-13T02:07:38;15.80;;;13.05;;
50988;SDS011;37008;52.210;21.112;2023-07-13T02:10:05;16.80;;;13.93;;
50988;SDS011;37008;52.210;21.112;2023-07-13T02:12:32;19.15;;;13.15;;
50988;SDS011;37008;52.210;21.112;2023-07-13T02:14:57;15.88;;;13.73;;
50988;SDS011;37008;52.210;21.112;2023-07-13T02:17:23;15.35;;;13.27;;
50988;SDS011;37008;52.210;21.112;2023-07-13T02:19:49;17.35;;;12.65;;
50988;SDS011;37008;52.210;21.112;2023-07-13T02:22:14;19.88;;;12.50;;
50988;SDS011;37008;52.210;21.112;2023-07-13T02:24:40;19.02;;;13.70;;
50988;SDS011;37008;52.210;21.112;2023-07-13T02:27:06;17.58;;;14.05;;
50988;SDS011;37008;52.210;21.112;2023-07-13T02:29:31;19.42;;;14.10;;
50988;SDS011;37008;52.210;21.112;2023-07-13T02:31:57;15.73;;;13.25;;
50988;SDS011;37008;52.210;21.112;2023-07-13T02:34:23;19.40;;;13.88;;
50988;SDS011;37008;52.210;21.112;2023-07-13T02:36:48;16.00;;;13.35;;
50988;SDS011;37008;52.210;21.112;2023-07-13T02:39:14;15.48;;;13.80;;
50988;SDS011;37008;52.210;21.112;2023-07-13T02:41:40;21.98;;;14.73;;
50988;SDS011;37008;52.210;21.112;2023-07-13T02:44:05;16.33;;;13.25;;
50988;SDS011;37008;52.210;21.112;2023-07-13T02:46:33;17.27;;;13.50;;
50988;SDS011;37008;52.210;21.112;2023-07-13T02:48:59;15.75;;;13.05;;
50988;SDS011;37008;52.210;21.112;2023-07-13T02:51:25;17.27;;;14.73;;
50988;SDS011;37008;52.210;21.112;2023-07-13T02:53:51;15.68;;;13.98;;
50988;SDS011;37008;52.210;21.112;2023-07-13T02:56:17;19.65;;;14.07;;
50988;SDS011;37008;52.210;21.112;2023-07-13T02:58:47;15.65;;;13.15;;
50988;SDS011;37008;52.210;21.112;2023-07-13T03:01:13;14.30;;;12.80;;
50988;SDS011;37008;52.210;21.112;2023-07-13T03:03:43;15.20;;;12.98;;
50988;SDS011;37008;52.210;21.112;2023-07-13T03:06:10;15.10;;;13.10;;
50988;SDS011;37008;52.210;21.112;2023-07-13T03:08:36;15.43;;;13.20;;
50988;SDS011;37008;52.210;21.112;2023-07-13T03:11:07;19.98;;;14.25;;
50988;SDS011;37008;52.210;21.112;2023-07-13T03:13:34;19.95;;;13.23;;
50988;SDS011;37008;52.210;21.112;2023-07-13T03:15:59;18.08;;;13.27;;
50988;SDS011;37008;52.210;21.112;2023-07-13T03:18:26;19.55;;;14.32;;
50988;SDS011;37008;52.210;21.112;2023-07-13T03:20:53;15.60;;;13.25;;
50988;SDS011;37008;52.210;21.112;2023-07-13T03:23:19;15.15;;;13.55;;
50988;SDS011;37008;52.210;21.112;2023-07-13T03:25:45;16.70;;;13.20;;
50988;SDS011;37008;52.210;21.112;2023-07-13T03:28:11;15.95;;;13.07;;
50988;SDS011;37008;52.210;21.112;2023-07-13T03:30:38;17.80;;;13.52;;
50988;SDS011;37008;52.210;21.112;2023-07-13T03:33:03;15.90;;;14.18;;
50988;SDS011;37008;52.210;21.112;2023-07-13T03:35:29;19.05;;;15.05;;
50988;SDS011;37008;52.210;21.112;2023-07-13T03:37:55;15.93;;;14.32;;
50988;SDS011;37008;52.210;21.112;2023-07-13T03:40:21;15.18;;;13.13;;
50988;SDS011;37008;52.210;21.112;2023-07-13T03:42:48;16.40;;;13.52;;
50988;SDS011;37008;52.210;21.112;2023-07-13T03:45:13;15.88;;;14.18;;
50988;SDS011;37008;52.210;21.112;2023-07-13T03:47:39;16.42;;;14.13;;
50988;SDS011;37008;52.210;21.112;2023-07-13T03:50:04;14.82;;;13.18;;
50988;SDS011;37008;52.210;21.112;2023-07-13T03:52:30;13.27;;;11.10;;
50988;SDS011;37008;52.210;21.112;2023-07-13T03:54:56;12.15;;;10.95;;
50988;SDS011;37008;52.210;21.112;2023-07-13T03:57:22;14.05;;;12.63;;
50988;SDS011;37008;52.210;21.112;2023-07-13T03:59:48;11.80;;;10.50;;
50988;SDS011;37008;52.210;21.112;2023-07-13T04:02:13;12.27;;;10.73;;
50988;SDS011;37008;52.210;21.112;2023-07-13T04:04:39;12.13;;;10.82;;
50988;SDS011;37008;52.210;21.112;2023-07-13T04:07:05;12.70;;;10.35;;
50988;SDS011;37008;52.210;21.112;2023-07-13T04:09:33;12.55;;;9.93;;
50988;SDS011;37008;52.210;21.112;2023-07-13T04:11:59;15.02;;;10.50;;
50988;SDS011;37008;52.210;21.112;2023-07-13T04:14:24;12.35;;;10.27;;
50988;SDS011;37008;52.210;21.112;2023-07-13T04:16:50;11.73;;;10.52;;
50988;SDS011;37008;52.210;21.112;2023-07-13T04:19:15;13.93;;;9.95;;
50988;SDS011;37008;52.210;21.112;2023-07-13T04:21:41;15.60;;;10.90;;
50988;SDS011;37008;52.210;21.112;2023-07-13T04:24:06;13.00;;;11.25;;
50988;SDS011;37008;52.210;21.112;2023-07-13T04:26:32;13.25;;;11.68;;
50988;SDS011;37008;52.210;21.112;2023-07-13T04:29:01;14.90;;;11.82;;
50988;SDS011;37008;52.210;21.112;2023-07-13T04:31:28;14.93;;;12.15;;
50988;SDS011;37008;52.210;21.112;2023-07-13T04:33:54;14.00;;;12.10;;
50988;SDS011;37008;52.210;21.112;2023-07-13T04:36:20;14.85;;;12.88;;
50988;SDS011;37008;52.210;21.112;2023-07-13T04:38:45;14.90;;;12.52;;
50988;SDS011;37008;52.210;21.112;2023-07-13T04:41:12;16.60;;;12.68;;
50988;SDS011;37008;52.210;21.112;2023-07-13T04:43:39;15.13;;;13.50;;
50988;SDS011;37008;52.210;21.112;2023-07-13T04:46:08;18.10;;;14.10;;
50988;SDS011;37008;52.210;21.112;2023-07-13T04:48:36;19.08;;;13.85;;
50988;SDS011;37008;52.210;21.112;2023-07-13T04:51:01;18.45;;;13.98;;
50988;SDS011;37008;52.210;21.112;2023-07-13T04:53:28;17.55;;;14.93;;
50988;SDS011;37008;52.210;21.112;2023-07-13T04:55:54;18.27;;;15.90;;
50988;SDS011;37008;52.210;21.112;2023-07-13T04:58:20;19.00;;;17.05;;
50988;SDS011;37008;52.210;21.112;2023-07-13T05:00:46;19.48;;;17.38;;
50988;SDS011;37008;52.210;21.112;2023-07-13T05:03:12;19.30;;;15.90;;
50988;SDS011;37008;52.210;21.112;2023-07-13T05:05:38;17.42;;;15.52;;
50988;SDS011;37008;52.210;21.112;2023-07-13T05:08:04;15.90;;;14.25;;
50988;SDS011;37008;52.210;21.112;2023-07-13T05:10:29;17.85;;;15.50;;
50988;SDS011;37008;52.210;21.112;2023-07-13T05:12:55;17.63;;;15.25;;
50988;SDS011;37008;52.210;21.112;2023-07-13T05:15:21;16.63;;;13.25;;
50988;SDS011;37008;52.210;21.112;2023-07-13T05:17:47;18.02;;;14.30;;
50988;SDS011;37008;52.210;21.112;2023-07-13T05:20:14;18.20;;;14.10;;
50988;SDS011;37008;52.210;21.112;2023-07-13T05:22:41;15.70;;;13.48;;
50988;SDS011;37008;52.210;21.112;2023-07-13T05:25:07;18.55;;;15.00;;
50988;SDS011;37008;52.210;21.112;2023-07-13T05:27:34;16.63;;;14.10;;
50988;SDS011;37008;52.210;21.112;2023-07-13T05:30:00;21.70;;;15.38;;
50988;SDS011;37008;52.210;21.112;2023-07-13T05:32:26;17.83;;;15.63;;
50988;SDS011;37008;52.210;21.112;2023-07-13T05:34:51;17.55;;;14.63;;
50988;SDS011;37008;52.210;21.112;2023-07-13T05:37:17;18.38;;;16.42;;
50988;SDS011;37008;52.210;21.112;2023-07-13T05:39:43;17.65;;;15.32;;
50988;SDS011;37008;52.210;21.112;2023-07-13T05:42:09;16.40;;;14.45;;
50988;SDS011;37008;52.210;21.112;2023-07-13T05:44:34;17.17;;;14.60;;
50988;SDS011;37008;52.210;21.112;2023-07-13T05:47:00;19.73;;;14.32;;
50988;SDS011;37008;52.210;21.112;2023-07-13T05:49:26;21.65;;;15.23;;
50988;SDS011;37008;52.210;21.112;2023-07-13T05:51:51;23.23;;;15.25;;
50988;SDS011;37008;52.210;21.112;2023-07-13T05:54:17;16.02;;;14.18;;
50988;SDS011;37008;52.210;21.112;2023-07-13T05:56:42;21.38;;;14.25;;
50988;SDS011;37008;52.210;21.112;2023-07-13T05:59:08;18.80;;;15.05;;
50988;SDS011;37008;52.210;21.112;2023-07-13T06:01:33;17.92;;;13.50;;
50988;SDS011;37008;52.210;21.112;2023-07-13T06:03:59;18.88;;;12.93;;
50988;SDS011;37008;52.210;21.112;2023-07-13T06:06:25;17.88;;;14.68;;
50988;SDS011;37008;52.210;21.112;2023-07-13T06:08:50;18.92;;;13.52;;
50988;SDS011;37008;52.210;21.112;2023-07-13T06:11:17;19.17;;;13.98;;
50988;SDS011;37008;52.210;21.112;2023-07-13T06:13:45;17.38;;;13.45;;
50988;SDS011;37008;52.210;21.112;2023-07-13T06:16:11;20.60;;;14.07;;
50988;SDS011;37008;52.210;21.112;2023-07-13T06:18:37;16.85;;;12.98;;
50988;SDS011;37008;52.210;21.112;2023-07-13T06:21:08;15.55;;;13.30;;
50988;SDS011;37008;52.210;21.112;2023-07-13T06:23:44;17.23;;;12.43;;
50988;SDS011;37008;52.210;21.112;2023-07-13T06:26:12;16.33;;;13.32;;
50988;SDS011;37008;52.210;21.112;2023-07-13T06:28:38;15.88;;;12.68;;
50988;SDS011;37008;52.210;21.112;2023-07-13T06:31:06;15.68;;;12.82;;
50988;SDS011;37008;52.210;21.112;2023-07-13T06:33:33;17.98;;;12.38;;
50988;SDS011;37008;52.210;21.112;2023-07-13T06:35:59;13.20;;;11.90;;
50988;SDS011;37008;52.210;21.112;2023-07-13T06:38:24;17.40;;;12.35;;
50988;SDS011;37008;52.210;21.112;2023-07-13T06:40:50;15.27;;;11.40;;
50988;SDS011;37008;52.210;21.112;2023-07-13T06:43:16;12.88;;;11.40;;
50988;SDS011;37008;52.210;21.112;2023-07-13T06:45:43;13.88;;;9.73;;
50988;SDS011;37008;52.210;21.112;2023-07-13T06:48:18;13.30;;;8.55;;
50988;SDS011;37008;52.210;21.112;2023-07-13T06:50:44;10.35;;;9.27;;
50988;SDS011;37008;52.210;21.112;2023-07-13T06:53:11;12.18;;;8.30;;
50988;SDS011;37008;52.210;21.112;2023-07-13T06:55:38;9.00;;;7.10;;
50988;SDS011;37008;52.210;21.112;2023-07-13T06:58:04;13.30;;;7.88;;
50988;SDS011;37008;52.210;21.112;2023-07-13T07:00:30;11.32;;;7.05;;
50988;SDS011;37008;52.210;21.112;2023-07-13T07:02:56;11.25;;;6.13;;
50988;SDS011;37008;52.210;21.112;2023-07-13T07:05:22;6.85;;;6.15;;
50988;SDS011;37008;52.210;21.112;2023-07-13T07:07:49;8.55;;;6.40;;
50988;SDS011;37008;52.210;21.112;2023-07-13T07:10:15;11.77;;;6.43;;
50988;SDS011;37008;52.210;21.112;2023-07-13T07:12:40;8.82;;;6.00;;
50988;SDS011;37008;52.210;21.112;2023-07-13T07:15:06;6.03;;;4.68;;
50988;SDS011;37008;52.210;21.112;2023-07-13T07:17:31;8.00;;;5.00;;
50988;SDS011;37008;52.210;21.112;2023-07-13T07:19:57;8.93;;;5.03;;
50988;SDS011;37008;52.210;21.112;2023-07-13T07:22:23;9.80;;;5.03;;
50988;SDS011;37008;52.210;21.112;2023-07-13T07:24:52;7.72;;;4.40;;
50988;SDS011;37008;52.210;21.112;2023-07-13T07:27:17;7.85;;;3.83;;
50988;SDS011;37008;52.210;21.112;2023-07-13T07:29:43;6.22;;;4.03;;
50988;SDS011;37008;52.210;21.112;2023-07-13T07:32:08;9.90;;;4.32;;
50988;SDS011;37008;52.210;21.112;2023-07-13T07:34:34;5.78;;;4.60;;
50988;SDS011;37008;52.210;21.112;2023-07-13T07:37:00;5.03;;;4.53;;
50988;SDS011;37008;52.210;21.112;2023-07-13T07:39:26;6.88;;;4.70;;
50988;SDS011;37008;52.210;21.112;2023-07-13T07:41:52;7.35;;;4.63;;
50988;SDS011;37008;52.210;21.112;2023-07-13T07:44:18;8.00;;;4.43;;
50988;SDS011;37008;52.210;21.112;2023-07-13T07:46:43;5.55;;;4.10;;
50988;SDS011;37008;52.210;21.112;2023-07-13T07:49:09;6.30;;;4.78;;
50988;SDS011;37008;52.210;21.112;2023-07-13T07:51:35;6.45;;;4.78;;
50988;SDS011;37008;52.210;21.112;2023-07-13T07:54:01;9.70;;;5.38;;
50988;SDS011;37008;52.210;21.112;2023-07-13T07:56:28;6.78;;;5.00;;
50988;SDS011;37008;52.210;21.112;2023-07-13T07:58:53;11.65;;;5.40;;
50988;SDS011;37008;52.210;21.112;2023-07-13T08:01:19;7.82;;;4.82;;
50988;SDS011;37008;52.210;21.112;2023-07-13T08:03:44;9.90;;;5.60;;
50988;SDS011;37008;52.210;21.112;2023-07-13T08:06:10;9.40;;;5.47;;
50988;SDS011;37008;52.210;21.112;2023-07-13T08:08:35;11.73;;;5.00;;
50988;SDS011;37008;52.210;21.112;2023-07-13T08:11:05;9.65;;;4.25;;
50988;SDS011;37008;52.210;21.112;2023-07-13T08:13:32;6.55;;;3.50;;
50988;SDS011;37008;52.210;21.112;2023-07-13T08:16:04;9.68;;;3.92;;
50988;SDS011;37008;52.210;21.112;2023-07-13T08:18:31;4.20;;;3.22;;
50988;SDS011;37008;52.210;21.112;2023-07-13T08:20:57;5.20;;;3.45;;
50988;SDS011;37008;52.210;21.112;2023-07-13T08:23:23;6.53;;;3.80;;
50988;SDS011;37008;52.210;21.112;2023-07-13T08:25:51;6.63;;;4.45;;
50988;SDS011;37008;52.210;21.112;2023-07-13T08:28:18;5.53;;;4.47;;
50988;SDS011;37008;52.210;21.112;2023-07-13T08:30:46;5.47;;;4.72;;
50988;SDS011;37008;52.210;21.112;2023-07-13T08:33:14;6.55;;;4.63;;
50988;SDS011;37008;52.210;21.112;2023-07-13T08:35:40;7.70;;;4.25;;
50988;SDS011;37008;52.210;21.112;2023-07-13T08:38:06;6.32;;;4.53;;
50988;SDS011;37008;52.210;21.112;2023-07-13T08:40:31;10.73;;;4.75;;
50988;SDS011;37008;52.210;21.112;2023-07-13T08:42:59;8.20;;;4.18;;
50988;SDS011;37008;52.210;21.112;2023-07-13T08:48:19;4.93;;;3.80;;
50988;SDS011;37008;52.210;21.112;2023-07-13T08:50:57;6.35;;;4.18;;
50988;SDS011;37008;52.210;21.112;2023-07-13T08:53:42;6.25;;;4.35;;
50988;SDS011;37008;52.210;21.112;2023-07-13T08:56:19;6.28;;;4.55;;
50988;SDS011;37008;52.210;21.112;2023-07-13T08:58:49;7.53;;;4.47;;
50988;SDS011;37008;52.210;21.112;2023-07-13T09:01:33;7.65;;;4.63;;
50988;SDS011;37008;52.210;21.112;2023-07-13T09:04:25;6.88;;;4.22;;
50988;SDS011;37008;52.210;21.112;2023-07-13T09:07:05;7.07;;;5.05;;
50988;SDS011;37008;52.210;21.112;2023-07-13T09:09:50;7.03;;;5.00;;
50988;SDS011;37008;52.210;21.112;2023-07-13T09:18:35;8.32;;;4.82;;
50988;SDS011;37008;52.210;21.112;2023-07-13T09:21:12;7.60;;;5.28;;
50988;SDS011;37008;52.210;21.112;2023-07-13T09:23:41;5.60;;;5.03;;
50988;SDS011;37008;52.210;21.112;2023-07-13T09:26:19;6.30;;;5.70;;
50988;SDS011;37008;52.210;21.112;2023-07-13T09:28:51;9.15;;;5.35;;
50988;SDS011;37008;52.210;21.112;2023-07-13T09:31:47;8.52;;;5.30;;
50988;SDS011;37008;52.210;21.112;2023-07-13T09:34:18;7.07;;;5.22;;
50988;SDS011;37008;52.210;21.112;2023-07-13T09:36:43;11.13;;;5.78;;
50988;SDS011;37008;52.210;21.112;2023-07-13T09:39:26;7.70;;;5.03;;
50988;SDS011;37008;52.210;21.112;2023-07-13T09:41:57;6.50;;;5.30;;
50988;SDS011;37008;52.210;21.112;2023-07-13T09:44:34;8.25;;;5.40;;
50988;SDS011;37008;52.210;21.112;2023-07-13T09:47:25;5.25;;;4.32;;
50988;SDS011;37008;52.210;21.112;2023-07-13T09:49:58;10.90;;;3.85;;
50988;SDS011;37008;52.210;21.112;2023-07-13T09:52:26;6.63;;;3.30;;
50988;SDS011;37008;52.210;21.112;2023-07-13T09:54:53;8.43;;;3.45;;
50988;SDS011;37008;52.210;21.112;2023-07-13T09:57:24;8.65;;;3.70;;
50988;SDS011;37008;52.210;21.112;2023-07-13T09:59:53;9.55;;;3.53;;
50988;SDS011;37008;52.210;21.112;2023-07-13T10:02:25;5.63;;;3.20;;
50988;SDS011;37008;52.210;21.112;2023-07-13T10:04:58;9.15;;;2.70;;
50988;SDS011;37008;52.210;21.112;2023-07-13T10:07:26;7.82;;;3.53;;
50988;SDS011;37008;52.210;21.112;2023-07-13T10:09:55;5.70;;;3.08;;
50988;SDS011;37008;52.210;21.112;2023-07-13T10:12:23;6.45;;;3.30;;
50988;SDS011;37008;52.210;21.112;2023-07-13T10:14:50;7.18;;;3.53;;
50988;SDS011;37008;52.210;21.112;2023-07-13T10:17:21;5.97;;;3.25;;
50988;SDS011;37008;52.210;21.112;2023-07-13T10:19:59;4.55;;;2.90;;
50988;SDS011;37008;52.210;21.112;2023-07-13T10:24:56;6.35;;;3.15;;
50988;SDS011;37008;52.210;21.112;2023-07-13T10:27:40;6.28;;;2.65;;
50988;SDS011;37008;52.210;21.112;2023-07-13T10:30:12;4.38;;;2.45;;
50988;SDS011;37008;52.210;21.112;2023-07-13T10:32:42;4.75;;;2.50;;
50988;SDS011;37008;52.210;21.112;2023-07-13T10:35:10;3.92;;;2.50;;
50988;SDS011;37008;52.210;21.112;2023-07-13T10:40:26;3.17;;;1.90;;
50988;SDS011;37008;52.210;21.112;2023-07-13T10:42:57;5.10;;;2.45;;
50988;SDS011;37008;52.210;21.112;2023-07-13T10:45:25;8.88;;;2.20;;
50988;SDS011;37008;52.210;21.112;2023-07-13T10:47:54;5.05;;;2.35;;
50988;SDS011;37008;52.210;21.112;2023-07-13T10:50:24;5.93;;;1.70;;
50988;SDS011;37008;52.210;21.112;2023-07-13T10:52:54;2.55;;;2.03;;
50988;SDS011;37008;52.210;21.112;2023-07-13T10:58:01;5.35;;;2.25;;
50988;SDS011;37008;52.210;21.112;2023-07-13T11:00:43;6.05;;;2.30;;
50988;SDS011;37008;52.210;21.112;2023-07-13T11:03:29;5.18;;;2.10;;
50988;SDS011;37008;52.210;21.112;2023-07-13T11:22:01;15.65;;;6.20;;
50988;SDS011;37008;52.210;21.112;2023-07-13T11:24:48;15.48;;;6.80;;
50988;SDS011;37008;52.210;21.112;2023-07-13T11:27:32;11.02;;;7.75;;
50988;SDS011;37008;52.210;21.112;2023-07-13T11:33:02;22.83;;;9.32;;
50988;SDS011;37008;52.210;21.112;2023-07-13T11:38:17;15.50;;;8.55;;
50988;SDS011;37008;52.210;21.112;2023-07-13T11:40:46;18.50;;;10.88;;
50988;SDS011;37008;52.210;21.112;2023-07-13T11:43:14;10.38;;;6.97;;
50988;SDS011;37008;52.210;21.112;2023-07-13T11:45:41;18.23;;;8.07;;
50988;SDS011;37008;52.210;21.112;2023-07-13T11:48:18;13.18;;;8.90;;
50988;SDS011;37008;52.210;21.112;2023-07-13T11:50:49;19.98;;;10.60;;
50988;SDS011;37008;52.210;21.112;2023-07-13T11:53:40;12.30;;;7.43;;
50988;SDS011;37008;52.210;21.112;2023-07-13T11:56:10;9.43;;;6.68;;
50988;SDS011;37008;52.210;21.112;2023-07-13T11:58:35;19.42;;;9.40;;
50988;SDS011;37008;52.210;21.112;2023-07-13T12:01:01;11.60;;;8.50;;
50988;SDS011;37008;52.210;21.112;2023-07-13T12:03:29;17.20;;;8.30;;
50988;SDS011;37008;52.210;21.112;2023-07-13T12:05:57;8.98;;;6.57;;
50988;SDS011;37008;52.210;21.112;2023-07-13T12:08:23;11.70;;;7.80;;
50988;SDS011;37008;52.210;21.112;2023-07-13T12:10:55;10.30;;;7.57;;
50988;SDS011;37008;52.210;21.112;2023-07-13T12:13:22;17.63;;;9.73;;
50988;SDS011;37008;52.210;21.112;2023-07-13T12:15:47;18.73;;;10.23;;
50988;SDS011;37008;52.210;21.112;2023-07-13T12:18:16;17.60;;;10.77;;
50988;SDS011;37008;52.210;21.112;2023-07-13T12:20:45;19.27;;;9.98;;
50988;SDS011;37008;52.210;21.112;2023-07-13T12:23:22;12.48;;;11.10;;
50988;SDS011;37008;52.210;21.112;2023-07-13T12:25:51;21.30;;;11.55;;
50988;SDS011;37008;52.210;21.112;2023-07-13T12:31:01;16.38;;;9.32;;
50988;SDS011;37008;52.210;21.112;2023-07-13T12:33:28;19.75;;;11.32;;
50988;SDS011;37008;52.210;21.112;2023-07-13T12:35:56;21.20;;;11.70;;
50988;SDS011;37008;52.210;21.112;2023-07-13T12:38:24;15.18;;;11.77;;
50988;SDS011;37008;52.210;21.112;2023-07-13T12:40:51;17.67;;;11.93;;
50988;SDS011;37008;52.210;21.112;2023-07-13T12:43:19;17.05;;;11.25;;
50988;SDS011;37008;52.210;21.112;2023-07-13T12:48:27;14.20;;;9.38;;
50988;SDS011;37008;52.210;21.112;2023-07-13T12:50:54;16.58;;;10.50;;
50988;SDS011;37008;52.210;21.112;2023-07-13T12:53:21;14.77;;;10.70;;
50988;SDS011;37008;52.210;21.112;2023-07-13T12:55:49;15.77;;;11.30;;
50988;SDS011;37008;52.210;21.112;2023-07-13T12:58:21;16.90;;;11.15;;
50988;SDS011;37008;52.210;21.112;2023-07-13T13:01:09;22.40;;;10.95;;
50988;SDS011;37008;52.210;21.112;2023-07-13T13:03:44;15.98;;;10.02;;
50988;SDS011;37008;52.210;21.112;2023-07-13T13:08:40;14.27;;;10.40;;
50988;SDS011;37008;52.210;21.112;2023-07-13T13:11:07;13.68;;;10.98;;
50988;SDS011;37008;52.210;21.112;2023-07-13T13:13:34;12.93;;;10.32;;
50988;SDS011;37008;52.210;21.112;2023-07-13T13:18:54;15.93;;;9.18;;
50988;SDS011;37008;52.210;21.112;2023-07-13T13:21:22;15.00;;;10.93;;
50988;SDS011;37008;52.210;21.112;2023-07-13T13:23:48;15.48;;;11.63;;
50988;SDS011;37008;52.210;21.112;2023-07-13T13:26:16;17.90;;;12.35;;
50988;SDS011;37008;52.210;21.112;2023-07-13T13:28:42;14.48;;;12.60;;
50988;SDS011;37008;52.210;21.112;2023-07-13T13:31:12;14.07;;;11.35;;
50988;SDS011;37008;52.210;21.112;2023-07-13T13:33:39;13.82;;;10.57;;
50988;SDS011;37008;52.210;21.112;2023-07-13T13:36:20;14.98;;;10.38;;
50988;SDS011;37008;52.210;21.112;2023-07-13T13:38:48;18.02;;;11.75;;
50988;SDS011;37008;52.210;21.112;2023-07-13T13:41:16;14.95;;;12.15;;
50988;SDS011;37008;52.210;21.112;2023-07-13T13:43:42;19.52;;;13.05;;
50988;SDS011;37008;52.210;21.112;2023-07-13T13:46:20;14.43;;;12.93;;
50988;SDS011;37008;52.210;21.112;2023-07-13T13:48:50;21.05;;;14.05;;
50988;SDS011;37008;52.210;21.112;2023-07-13T13:51:17;20.60;;;13.57;;
50988;SDS011;37008;52.210;21.112;2023-07-13T13:53:45;19.77;;;13.43;;
50988;SDS011;37008;52.210;21.112;2023-07-13T13:56:12;17.70;;;13.18;;
50988;SDS011;37008;52.210;21.112;2023-07-13T13:58:39;20.20;;;13.50;;
50988;SDS011;37008;52.210;21.112;2023-07-13T14:01:08;18.65;;;12.45;;
50988;SDS011;37008;52.210;21.112;2023-07-13T14:03:39;17.20;;;12.98;;
50988;SDS011;37008;52.210;21.112;2023-07-13T14:06:04;14.55;;;12.13;;
50988;SDS011;37008;52.210;21.112;2023-07-13T14:08:30;14.38;;;11.82;;
50988;SDS011;37008;52.210;21.112;2023-07-13T14:10:56;12.50;;;10.93;;
50988;SDS011;37008;52.210;21.112;2023-07-13T14:13:27;18.13;;;11.70;;
50988;SDS011;37008;52.210;21.112;2023-07-13T14:15:56;16.08;;;12.23;;
50988;SDS011;37008;52.210;21.112;2023-07-13T14:18:22;20.08;;;13.52;;
50988;SDS011;37008;52.210;21.112;2023-07-13T14:20:49;16.00;;;12.27;;
50988;SDS011;37008;52.210;21.112;2023-07-13T14:23:17;17.02;;;12.63;;
50988;SDS011;37008;52.210;21.112;2023-07-13T14:25:43;18.75;;;13.38;;
50988;SDS011;37008;52.210;21.112;2023-07-13T14:30:47;19.48;;;14.38;;
50988;SDS011;37008;52.210;21.112;2023-07-13T14:33:13;21.90;;;13.18;;
50988;SDS011;37008;52.210;21.112;2023-07-13T14:35:38;23.90;;;14.00;;
50988;SDS011;37008;52.210;21.112;2023-07-13T14:38:04;19.52;;;13.98;;
50988;SDS011;37008;52.210;21.112;2023-07-13T14:40:33;17.20;;;12.57;;
50988;SDS011;37008;52.210;21.112;2023-07-13T14:42:59;14.65;;;13.20;;
50988;SDS011;37008;52.210;21.112;2023-07-13T14:45:25;16.17;;;14.02;;
50988;SDS011;37008;52.210;21.112;2023-07-13T14:47:51;19.73;;;13.73;;
50988;SDS011;37008;52.210;21.112;2023-07-13T14:50:30;21.90;;;13.90;;
50988;SDS011;37008;52.210;21.112;2023-07-13T14:52:57;18.33;;;14.48;;
50988;SDS011;37008;52.210;21.112;2023-07-13T14:55:23;16.75;;;13.35;;
50988;SDS011;37008;52.210;21.112;2023-07-13T14:57:51;16.05;;;13.43;;
50988;SDS011;37008;52.210;21.112;2023-07-13T15:00:18;14.00;;;12.50;;
50988;SDS011;37008;52.210;21.112;2023-07-13T15:02:52;14.13;;;12.43;;
50988;SDS011;37008;52.210;21.112;2023-07-13T15:05:20;13.03;;;10.53;;
50988;SDS011;37008;52.210;21.112;2023-07-13T15:07:49;17.25;;;11.57;;
50988;SDS011;37008;52.210;21.112;2023-07-13T15:10:16;15.35;;;11.00;;
50988;SDS011;37008;52.210;21.112;2023-07-13T15:12:47;16.20;;;11.80;;
50988;SDS011;37008;52.210;21.112;2023-07-13T15:15:13;12.68;;;11.43;;